sensor_id;sensor_type;location;lat;lon;timestamp;P1;durP1;ratioP1;P2;durP2;ratioP2
5042;SDS011;2540;50.928;6.856;2023-03-26T00:01:18;27.13;;;3.47;;
5042;SDS011;2540;50.928;6.856;2023-03-26T00:03:45;27.87;;;3.30;;
5042;SDS011;2540;50.928;6.856;2023-03-26T00:06:17;24.43;;;3.20;;
5042;SDS011;2540;50.928;6.856;2023-03-26T00:08:44;31.17;;;3.03;;
5042;SDS011;2540;50.928;6.856;2023-03-26T00:11:10;17.30;;;3.77;;
5042;SDS011;2540;50.928;6.856;2023-03-26T00:13:37;14.40;;;2.23;;
5042;SDS011;2540;50.928;6.856;2023-03-26T00:16:03;16.80;;;2.87;;
5042;SDS011;2540;50.928;6.856;2023-03-26T00:18:29;17.83;;;2.60;;
5042;SDS011;2540;50.928;6.856;2023-03-26T00:20:59;16.17;;;3.27;;
5042;SDS011;2540;50.928;6.856;2023-03-26T00:23:26;22.07;;;3.73;;
5042;SDS011;2540;50.928;6.856;2023-03-26T00:25:52;19.10;;;3.10;;
5042;SDS011;2540;50.928;6.856;2023-03-26T00:28:20;12.70;;;2.20;;
5042;SDS011;2540;50.928;6.856;2023-03-26T00:30:49;11.33;;;2.07;;
5042;SDS011;2540;50.928;6.856;2023-03-26T00:33:21;23.63;;;3.23;;
5042;SDS011;2540;50.928;6.856;2023-03-26T00:35:50;14.10;;;2.53;;
5042;SDS011;2540;50.928;6.856;2023-03-26T00:38:21;17.43;;;2.60;;
5042;SDS011;2540;50.928;6.856;2023-03-26T00:40:47;14.30;;;2.87;;
5042;SDS011;2540;50.928;6.856;2023-03-26T00:43:15;20.20;;;2.53;;
5042;SDS011;2540;50.928;6.856;2023-03-26T00:45:50;15.50;;;2.53;;
5042;SDS011;2540;50.928;6.856;2023-03-26T00:48:18;24.37;;;2.87;;
5042;SDS011;2540;50.928;6.856;2023-03-26T00:50:47;17.60;;;2.80;;
5042;SDS011;2540;50.928;6.856;2023-03-26T00:53:13;25.53;;;3.27;;
5042;SDS011;2540;50.928;6.856;2023-03-26T00:55:39;22.33;;;3.00;;
5042;SDS011;2540;50.928;6.856;2023-03-26T00:58:06;7.23;;;2.20;;
5042;SDS011;2540;50.928;6.856;2023-03-26T01:00:35;15.80;;;2.17;;
5042;SDS011;2540;50.928;6.856;2023-03-26T01:03:21;21.63;;;3.73;;
5042;SDS011;2540;50.928;6.856;2023-03-26T01:05:50;12.10;;;2.57;;
5042;SDS011;2540;50.928;6.856;2023-03-26T01:10:49;16.73;;;2.50;;
5042;SDS011;2540;50.928;6.856;2023-03-26T01:13:20;23.33;;;2.80;;
5042;SDS011;2540;50.928;6.856;2023-03-26T01:15:46;13.33;;;2.63;;
5042;SDS011;2540;50.928;6.856;2023-03-26T01:18:19;11.80;;;2.73;;
5042;SDS011;2540;50.928;6.856;2023-03-26T01:20:47;10.77;;;2.50;;
5042;SDS011;2540;50.928;6.856;2023-03-26T01:23:14;16.60;;;2.20;;
5042;SDS011;2540;50.928;6.856;2023-03-26T01:25:45;14.87;;;2.30;;
5042;SDS011;2540;50.928;6.856;2023-03-26T01:28:14;27.90;;;3.03;;
5042;SDS011;2540;50.928;6.856;2023-03-26T01:30:44;19.97;;;3.60;;
5042;SDS011;2540;50.928;6.856;2023-03-26T01:33:24;12.67;;;2.17;;
5042;SDS011;2540;50.928;6.856;2023-03-26T01:35:59;15.43;;;3.00;;
5042;SDS011;2540;50.928;6.856;2023-03-26T01:38:41;11.80;;;3.10;;
5042;SDS011;2540;50.928;6.856;2023-03-26T01:41:37;14.83;;;2.63;;
5042;SDS011;2540;50.928;6.856;2023-03-26T01:44:09;23.40;;;4.80;;
5042;SDS011;2540;50.928;6.856;2023-03-26T01:46:36;12.27;;;2.77;;
5042;SDS011;2540;50.928;6.856;2023-03-26T01:49:02;16.07;;;2.90;;
5042;SDS011;2540;50.928;6.856;2023-03-26T01:51:33;11.17;;;2.43;;
5042;SDS011;2540;50.928;6.856;2023-03-26T01:54:02;22.27;;;3.30;;
5042;SDS011;2540;50.928;6.856;2023-03-26T02:09:57;10.43;;;2.03;;
5042;SDS011;2540;50.928;6.856;2023-03-26T02:12:23;19.70;;;3.70;;
5042;SDS011;2540;50.928;6.856;2023-03-26T02:14:50;9.17;;;2.30;;
5042;SDS011;2540;50.928;6.856;2023-03-26T02:17:15;13.77;;;3.43;;
5042;SDS011;2540;50.928;6.856;2023-03-26T02:19:43;11.60;;;2.60;;
5042;SDS011;2540;50.928;6.856;2023-03-26T02:22:09;12.30;;;2.03;;
5042;SDS011;2540;50.928;6.856;2023-03-26T02:24:39;16.20;;;2.60;;
5042;SDS011;2540;50.928;6.856;2023-03-26T02:27:05;24.90;;;4.57;;
5042;SDS011;2540;50.928;6.856;2023-03-26T02:29:33;16.00;;;3.27;;
5042;SDS011;2540;50.928;6.856;2023-03-26T02:32:01;10.50;;;2.30;;
5042;SDS011;2540;50.928;6.856;2023-03-26T02:34:28;11.73;;;2.73;;
5042;SDS011;2540;50.928;6.856;2023-03-26T02:36:54;17.77;;;2.87;;
5042;SDS011;2540;50.928;6.856;2023-03-26T02:39:21;22.37;;;2.97;;
5042;SDS011;2540;50.928;6.856;2023-03-26T02:41:46;14.13;;;2.60;;
5042;SDS011;2540;50.928;6.856;2023-03-26T02:44:12;15.43;;;2.70;;
5042;SDS011;2540;50.928;6.856;2023-03-26T02:46:37;20.00;;;3.10;;
5042;SDS011;2540;50.928;6.856;2023-03-26T02:49:02;16.50;;;2.43;;
5042;SDS011;2540;50.928;6.856;2023-03-26T02:51:28;21.87;;;3.30;;
5042;SDS011;2540;50.928;6.856;2023-03-26T02:53:53;16.83;;;3.10;;
5042;SDS011;2540;50.928;6.856;2023-03-26T02:56:18;18.13;;;3.30;;
5042;SDS011;2540;50.928;6.856;2023-03-26T02:58:44;16.87;;;2.83;;
5042;SDS011;2540;50.928;6.856;2023-03-26T03:01:11;18.60;;;2.53;;
5042;SDS011;2540;50.928;6.856;2023-03-26T03:03:37;13.63;;;3.27;;
5042;SDS011;2540;50.928;6.856;2023-03-26T03:06:02;14.83;;;2.33;;
5042;SDS011;2540;50.928;6.856;2023-03-26T03:08:27;16.07;;;2.20;;
5042;SDS011;2540;50.928;6.856;2023-03-26T03:13:34;9.60;;;2.13;;
5042;SDS011;2540;50.928;6.856;2023-03-26T03:16:00;9.53;;;2.20;;
5042;SDS011;2540;50.928;6.856;2023-03-26T03:18:25;16.43;;;2.50;;
5042;SDS011;2540;50.928;6.856;2023-03-26T03:20:51;11.90;;;2.50;;
5042;SDS011;2540;50.928;6.856;2023-03-26T03:23:17;17.67;;;2.70;;
5042;SDS011;2540;50.928;6.856;2023-03-26T03:25:43;10.70;;;1.93;;
5042;SDS011;2540;50.928;6.856;2023-03-26T03:28:08;16.07;;;2.03;;
5042;SDS011;2540;50.928;6.856;2023-03-26T03:30:34;14.67;;;1.90;;
5042;SDS011;2540;50.928;6.856;2023-03-26T03:33:00;14.60;;;2.40;;
5042;SDS011;2540;50.928;6.856;2023-03-26T03:35:26;12.50;;;2.03;;
5042;SDS011;2540;50.928;6.856;2023-03-26T03:37:53;9.70;;;2.10;;
5042;SDS011;2540;50.928;6.856;2023-03-26T03:40:19;13.13;;;2.70;;
5042;SDS011;2540;50.928;6.856;2023-03-26T03:42:45;13.53;;;2.30;;
5042;SDS011;2540;50.928;6.856;2023-03-26T03:45:10;6.37;;;1.80;;
5042;SDS011;2540;50.928;6.856;2023-03-26T03:47:36;11.67;;;2.70;;
5042;SDS011;2540;50.928;6.856;2023-03-26T03:50:01;8.83;;;2.20;;
5042;SDS011;2540;50.928;6.856;2023-03-26T03:52:27;15.93;;;2.67;;
5042;SDS011;2540;50.928;6.856;2023-03-26T03:54:53;14.73;;;2.60;;
5042;SDS011;2540;50.928;6.856;2023-03-26T03:57:20;6.63;;;1.70;;
5042;SDS011;2540;50.928;6.856;2023-03-26T03:59:46;6.97;;;1.57;;
5042;SDS011;2540;50.928;6.856;2023-03-26T04:02:11;8.93;;;2.27;;
5042;SDS011;2540;50.928;6.856;2023-03-26T04:04:37;18.70;;;3.00;;
5042;SDS011;2540;50.928;6.856;2023-03-26T04:07:03;11.40;;;2.10;;
5042;SDS011;2540;50.928;6.856;2023-03-26T04:09:29;15.50;;;4.53;;
5042;SDS011;2540;50.928;6.856;2023-03-26T04:11:54;9.10;;;2.63;;
5042;SDS011;2540;50.928;6.856;2023-03-26T04:14:20;9.00;;;2.33;;
5042;SDS011;2540;50.928;6.856;2023-03-26T04:16:45;18.80;;;1.90;;
5042;SDS011;2540;50.928;6.856;2023-03-26T04:19:12;17.33;;;2.73;;
5042;SDS011;2540;50.928;6.856;2023-03-26T04:21:38;14.73;;;2.57;;
5042;SDS011;2540;50.928;6.856;2023-03-26T04:24:06;16.70;;;2.40;;
5042;SDS011;2540;50.928;6.856;2023-03-26T04:26:32;14.57;;;2.10;;
5042;SDS011;2540;50.928;6.856;2023-03-26T04:28:58;18.13;;;1.73;;
5042;SDS011;2540;50.928;6.856;2023-03-26T04:31:25;7.90;;;2.20;;
5042;SDS011;2540;50.928;6.856;2023-03-26T04:33:54;13.10;;;1.73;;
5042;SDS011;2540;50.928;6.856;2023-03-26T04:36:27;10.80;;;2.10;;
5042;SDS011;2540;50.928;6.856;2023-03-26T04:38:53;11.07;;;2.00;;
5042;SDS011;2540;50.928;6.856;2023-03-26T04:41:20;18.40;;;2.40;;
5042;SDS011;2540;50.928;6.856;2023-03-26T04:43:46;12.73;;;2.13;;
5042;SDS011;2540;50.928;6.856;2023-03-26T04:46:20;5.73;;;1.97;;
5042;SDS011;2540;50.928;6.856;2023-03-26T04:48:48;7.10;;;2.30;;
5042;SDS011;2540;50.928;6.856;2023-03-26T04:51:13;18.20;;;2.43;;
5042;SDS011;2540;50.928;6.856;2023-03-26T04:53:42;13.27;;;2.53;;
5042;SDS011;2540;50.928;6.856;2023-03-26T04:56:12;7.67;;;2.20;;
5042;SDS011;2540;50.928;6.856;2023-03-26T04:58:42;10.73;;;2.00;;
5042;SDS011;2540;50.928;6.856;2023-03-26T05:01:07;12.20;;;3.07;;
5042;SDS011;2540;50.928;6.856;2023-03-26T05:03:34;8.83;;;1.83;;
5042;SDS011;2540;50.928;6.856;2023-03-26T05:06:03;15.20;;;1.90;;
5042;SDS011;2540;50.928;6.856;2023-03-26T05:08:28;13.37;;;2.23;;
5042;SDS011;2540;50.928;6.856;2023-03-26T05:10:54;9.73;;;2.10;;
5042;SDS011;2540;50.928;6.856;2023-03-26T05:13:20;16.23;;;2.53;;
5042;SDS011;2540;50.928;6.856;2023-03-26T05:15:47;9.00;;;2.57;;
5042;SDS011;2540;50.928;6.856;2023-03-26T05:18:12;5.83;;;2.07;;
5042;SDS011;2540;50.928;6.856;2023-03-26T05:20:38;9.13;;;2.60;;
5042;SDS011;2540;50.928;6.856;2023-03-26T05:23:03;15.63;;;2.20;;
5042;SDS011;2540;50.928;6.856;2023-03-26T05:25:28;19.60;;;2.17;;
5042;SDS011;2540;50.928;6.856;2023-03-26T05:27:54;11.30;;;2.20;;
5042;SDS011;2540;50.928;6.856;2023-03-26T05:30:20;9.40;;;2.13;;
5042;SDS011;2540;50.928;6.856;2023-03-26T05:32:46;20.03;;;2.20;;
5042;SDS011;2540;50.928;6.856;2023-03-26T05:35:15;13.03;;;2.33;;
5042;SDS011;2540;50.928;6.856;2023-03-26T05:37:41;28.37;;;3.00;;
5042;SDS011;2540;50.928;6.856;2023-03-26T05:40:08;6.90;;;2.13;;
5042;SDS011;2540;50.928;6.856;2023-03-26T05:42:36;15.90;;;2.40;;
5042;SDS011;2540;50.928;6.856;2023-03-26T05:45:02;7.73;;;2.13;;
5042;SDS011;2540;50.928;6.856;2023-03-26T05:47:27;20.73;;;2.97;;
5042;SDS011;2540;50.928;6.856;2023-03-26T05:49:53;7.23;;;1.90;;
5042;SDS011;2540;50.928;6.856;2023-03-26T05:52:18;14.57;;;2.27;;
5042;SDS011;2540;50.928;6.856;2023-03-26T05:54:43;9.70;;;2.03;;
5042;SDS011;2540;50.928;6.856;2023-03-26T05:57:09;11.70;;;3.03;;
5042;SDS011;2540;50.928;6.856;2023-03-26T05:59:34;14.10;;;2.17;;
5042;SDS011;2540;50.928;6.856;2023-03-26T06:02:00;9.50;;;2.57;;
5042;SDS011;2540;50.928;6.856;2023-03-26T06:04:26;10.53;;;2.47;;
5042;SDS011;2540;50.928;6.856;2023-03-26T06:06:52;15.40;;;2.70;;
5042;SDS011;2540;50.928;6.856;2023-03-26T06:09:18;13.77;;;2.33;;
5042;SDS011;2540;50.928;6.856;2023-03-26T06:11:43;7.50;;;2.10;;
5042;SDS011;2540;50.928;6.856;2023-03-26T06:14:09;8.93;;;1.90;;
5042;SDS011;2540;50.928;6.856;2023-03-26T06:16:34;19.67;;;2.87;;
5042;SDS011;2540;50.928;6.856;2023-03-26T06:19:00;10.80;;;2.67;;
5042;SDS011;2540;50.928;6.856;2023-03-26T06:21:25;13.13;;;2.50;;
5042;SDS011;2540;50.928;6.856;2023-03-26T06:23:51;9.70;;;2.17;;
5042;SDS011;2540;50.928;6.856;2023-03-26T06:26:16;9.60;;;2.53;;
5042;SDS011;2540;50.928;6.856;2023-03-26T06:28:42;11.10;;;2.93;;
5042;SDS011;2540;50.928;6.856;2023-03-26T06:31:07;12.67;;;2.53;;
5042;SDS011;2540;50.928;6.856;2023-03-26T06:33:33;12.73;;;3.03;;
5042;SDS011;2540;50.928;6.856;2023-03-26T06:35:58;19.07;;;4.40;;
5042;SDS011;2540;50.928;6.856;2023-03-26T06:38:23;8.57;;;1.90;;
5042;SDS011;2540;50.928;6.856;2023-03-26T06:40:49;15.73;;;2.77;;
5042;SDS011;2540;50.928;6.856;2023-03-26T06:43:14;19.50;;;3.03;;
5042;SDS011;2540;50.928;6.856;2023-03-26T06:45:40;10.70;;;2.50;;
5042;SDS011;2540;50.928;6.856;2023-03-26T06:48:05;11.90;;;2.70;;
5042;SDS011;2540;50.928;6.856;2023-03-26T06:50:31;6.50;;;2.20;;
5042;SDS011;2540;50.928;6.856;2023-03-26T06:52:57;6.67;;;2.17;;
5042;SDS011;2540;50.928;6.856;2023-03-26T06:55:22;5.60;;;2.20;;
5042;SDS011;2540;50.928;6.856;2023-03-26T06:57:48;9.83;;;2.17;;
5042;SDS011;2540;50.928;6.856;2023-03-26T07:00:14;13.77;;;2.57;;
5042;SDS011;2540;50.928;6.856;2023-03-26T07:02:40;8.37;;;2.20;;
5042;SDS011;2540;50.928;6.856;2023-03-26T07:05:06;8.93;;;2.20;;
5042;SDS011;2540;50.928;6.856;2023-03-26T07:07:31;8.13;;;2.10;;
5042;SDS011;2540;50.928;6.856;2023-03-26T07:09:56;19.43;;;3.07;;
5042;SDS011;2540;50.928;6.856;2023-03-26T07:12:22;7.13;;;2.00;;
5042;SDS011;2540;50.928;6.856;2023-03-26T07:14:47;8.07;;;2.33;;
5042;SDS011;2540;50.928;6.856;2023-03-26T07:17:12;13.27;;;2.77;;
5042;SDS011;2540;50.928;6.856;2023-03-26T07:19:38;11.00;;;2.70;;
5042;SDS011;2540;50.928;6.856;2023-03-26T07:22:03;16.40;;;2.60;;
5042;SDS011;2540;50.928;6.856;2023-03-26T07:24:29;7.23;;;2.30;;
5042;SDS011;2540;50.928;6.856;2023-03-26T07:27:39;15.93;;;2.87;;
5042;SDS011;2540;50.928;6.856;2023-03-26T07:29:55;11.60;;;3.17;;
5042;SDS011;2540;50.928;6.856;2023-03-26T07:32:24;9.70;;;2.50;;
5042;SDS011;2540;50.928;6.856;2023-03-26T07:43:08;14.37;;;3.83;;
5042;SDS011;2540;50.928;6.856;2023-03-26T07:45:38;18.03;;;3.50;;
5042;SDS011;2540;50.928;6.856;2023-03-26T07:48:13;10.80;;;2.97;;
5042;SDS011;2540;50.928;6.856;2023-03-26T07:50:51;11.17;;;3.17;;
5042;SDS011;2540;50.928;6.856;2023-03-26T07:53:17;13.80;;;3.17;;
5042;SDS011;2540;50.928;6.856;2023-03-26T07:58:30;12.47;;;3.60;;
5042;SDS011;2540;50.928;6.856;2023-03-26T08:01:10;12.33;;;3.20;;
5042;SDS011;2540;50.928;6.856;2023-03-26T08:06:33;7.20;;;3.00;;
5042;SDS011;2540;50.928;6.856;2023-03-26T08:11:56;8.47;;;2.93;;
5042;SDS011;2540;50.928;6.856;2023-03-26T08:14:28;14.03;;;2.83;;
5042;SDS011;2540;50.928;6.856;2023-03-26T08:22:21;12.17;;;3.53;;
5042;SDS011;2540;50.928;6.856;2023-03-26T08:27:42;8.93;;;2.43;;
5042;SDS011;2540;50.928;6.856;2023-03-26T08:30:21;12.53;;;3.60;;
5042;SDS011;2540;50.928;6.856;2023-03-26T08:32:49;7.50;;;3.00;;
5042;SDS011;2540;50.928;6.856;2023-03-26T08:35:18;6.77;;;2.37;;
5042;SDS011;2540;50.928;6.856;2023-03-26T08:37:44;7.10;;;2.60;;
5042;SDS011;2540;50.928;6.856;2023-03-26T08:40:10;6.50;;;2.47;;
5042;SDS011;2540;50.928;6.856;2023-03-26T08:50:48;10.33;;;2.40;;
5042;SDS011;2540;50.928;6.856;2023-03-26T08:53:19;7.70;;;2.67;;
5042;SDS011;2540;50.928;6.856;2023-03-26T08:55:55;9.90;;;2.60;;
5042;SDS011;2540;50.928;6.856;2023-03-26T09:20:38;6.83;;;1.80;;
5042;SDS011;2540;50.928;6.856;2023-03-26T09:23:21;12.20;;;3.20;;
5042;SDS011;2540;50.928;6.856;2023-03-26T09:26:23;9.13;;;2.10;;
5042;SDS011;2540;50.928;6.856;2023-03-26T09:32:12;11.63;;;2.50;;
5042;SDS011;2540;50.928;6.856;2023-03-26T09:35:09;7.37;;;2.77;;
5042;SDS011;2540;50.928;6.856;2023-03-26T09:40:25;3.43;;;1.57;;
5042;SDS011;2540;50.928;6.856;2023-03-26T09:46:18;7.27;;;1.83;;
5042;SDS011;2540;50.928;6.856;2023-03-26T09:54:04;7.17;;;1.77;;
5042;SDS011;2540;50.928;6.856;2023-03-26T09:59:48;8.47;;;1.70;;
5042;SDS011;2540;50.928;6.856;2023-03-26T10:05:21;5.70;;;2.07;;
5042;SDS011;2540;50.928;6.856;2023-03-26T10:13:02;9.20;;;1.70;;
5042;SDS011;2540;50.928;6.856;2023-03-26T10:18:47;11.43;;;1.80;;
5042;SDS011;2540;50.928;6.856;2023-03-26T10:21:20;7.70;;;1.40;;
5042;SDS011;2540;50.928;6.856;2023-03-26T10:29:33;6.93;;;1.87;;
5042;SDS011;2540;50.928;6.856;2023-03-26T10:46:55;7.93;;;1.63;;
5042;SDS011;2540;50.928;6.856;2023-03-26T10:49:40;3.67;;;1.80;;
5042;SDS011;2540;50.928;6.856;2023-03-26T10:52:30;8.27;;;1.97;;
5042;SDS011;2540;50.928;6.856;2023-03-26T10:55:08;5.23;;;2.40;;
5042;SDS011;2540;50.928;6.856;2023-03-26T10:57:40;6.83;;;1.90;;
5042;SDS011;2540;50.928;6.856;2023-03-26T11:02:52;3.97;;;1.70;;
5042;SDS011;2540;50.928;6.856;2023-03-26T11:16:11;3.50;;;1.40;;
5042;SDS011;2540;50.928;6.856;2023-03-26T11:21:37;3.63;;;1.40;;
5042;SDS011;2540;50.928;6.856;2023-03-26T11:26:57;9.13;;;1.90;;
5042;SDS011;2540;50.928;6.856;2023-03-26T11:29:34;3.80;;;1.40;;
5042;SDS011;2540;50.928;6.856;2023-03-26T11:32:21;5.93;;;1.77;;
5042;SDS011;2540;50.928;6.856;2023-03-26T11:35:00;6.70;;;2.30;;
5042;SDS011;2540;50.928;6.856;2023-03-26T11:37:33;4.20;;;1.70;;
5042;SDS011;2540;50.928;6.856;2023-03-26T11:40:04;3.93;;;1.80;;
5042;SDS011;2540;50.928;6.856;2023-03-26T11:42:45;2.30;;;1.50;;
5042;SDS011;2540;50.928;6.856;2023-03-26T11:45:21;2.83;;;1.70;;
5042;SDS011;2540;50.928;6.856;2023-03-26T11:47:51;10.40;;;3.60;;
5042;SDS011;2540;50.928;6.856;2023-03-26T11:50:43;6.57;;;2.40;;
5042;SDS011;2540;50.928;6.856;2023-03-26T11:53:11;7.80;;;2.97;;
5042;SDS011;2540;50.928;6.856;2023-03-26T11:55:57;6.70;;;1.93;;
5042;SDS011;2540;50.928;6.856;2023-03-26T11:58:42;1.97;;;1.63;;
5042;SDS011;2540;50.928;6.856;2023-03-26T12:01:16;4.27;;;2.50;;
5042;SDS011;2540;50.928;6.856;2023-03-26T12:03:54;3.37;;;1.70;;
5042;SDS011;2540;50.928;6.856;2023-03-26T12:06:24;3.47;;;2.10;;
5042;SDS011;2540;50.928;6.856;2023-03-26T12:08:51;6.07;;;2.40;;
5042;SDS011;2540;50.928;6.856;2023-03-26T12:11:16;3.77;;;1.40;;
5042;SDS011;2540;50.928;6.856;2023-03-26T12:13:53;2.70;;;1.63;;
5042;SDS011;2540;50.928;6.856;2023-03-26T12:16:22;5.10;;;1.80;;
5042;SDS011;2540;50.928;6.856;2023-03-26T12:19:01;2.27;;;1.40;;
5042;SDS011;2540;50.928;6.856;2023-03-26T12:21:30;5.23;;;1.43;;
5042;SDS011;2540;50.928;6.856;2023-03-26T12:24:23;1.50;;;1.40;;
5042;SDS011;2540;50.928;6.856;2023-03-26T12:26:48;4.20;;;1.50;;
5042;SDS011;2540;50.928;6.856;2023-03-26T12:29:20;5.47;;;2.00;;
5042;SDS011;2540;50.928;6.856;2023-03-26T12:31:49;7.30;;;1.80;;
5042;SDS011;2540;50.928;6.856;2023-03-26T12:34:27;5.37;;;2.43;;
5042;SDS011;2540;50.928;6.856;2023-03-26T12:36:56;14.00;;;2.43;;
5042;SDS011;2540;50.928;6.856;2023-03-26T12:39:28;5.23;;;2.30;;
5042;SDS011;2540;50.928;6.856;2023-03-26T12:41:59;6.70;;;3.23;;
5042;SDS011;2540;50.928;6.856;2023-03-26T12:49:47;3.43;;;1.90;;
5042;SDS011;2540;50.928;6.856;2023-03-26T12:57:35;4.93;;;2.50;;
5042;SDS011;2540;50.928;6.856;2023-03-26T13:14:02;2.20;;;1.37;;
5042;SDS011;2540;50.928;6.856;2023-03-26T13:18:50;1.13;;;1.13;;
5042;SDS011;2540;50.928;6.856;2023-03-26T13:23:55;1.07;;;0.93;;
5042;SDS011;2540;50.928;6.856;2023-03-26T13:27:07;2.10;;;0.93;;
5042;SDS011;2540;50.928;6.856;2023-03-26T13:35:05;6.10;;;1.17;;
5042;SDS011;2540;50.928;6.856;2023-03-26T13:43:02;1.33;;;1.00;;
5042;SDS011;2540;50.928;6.856;2023-03-26T13:48:10;6.00;;;1.50;;
5042;SDS011;2540;50.928;6.856;2023-03-26T13:50:39;3.37;;;2.40;;
5042;SDS011;2540;50.928;6.856;2023-03-26T13:53:17;3.43;;;1.80;;
5042;SDS011;2540;50.928;6.856;2023-03-26T13:55:51;6.00;;;2.23;;
5042;SDS011;2540;50.928;6.856;2023-03-26T13:58:31;2.80;;;1.97;;
5042;SDS011;2540;50.928;6.856;2023-03-26T14:06:33;2.90;;;2.00;;
5042;SDS011;2540;50.928;6.856;2023-03-26T14:09:15;5.13;;;2.70;;
5042;SDS011;2540;50.928;6.856;2023-03-26T14:17:47;3.23;;;1.83;;
5042;SDS011;2540;50.928;6.856;2023-03-26T14:30:59;3.80;;;1.90;;
5042;SDS011;2540;50.928;6.856;2023-03-26T14:33:34;3.70;;;1.50;;
5042;SDS011;2540;50.928;6.856;2023-03-26T14:38:53;4.33;;;1.37;;
5042;SDS011;2540;50.928;6.856;2023-03-26T14:41:52;2.17;;;1.70;;
5042;SDS011;2540;50.928;6.856;2023-03-26T14:47:15;9.13;;;1.67;;
5042;SDS011;2540;50.928;6.856;2023-03-26T14:49:48;3.40;;;1.47;;
5042;SDS011;2540;50.928;6.856;2023-03-26T14:52:30;3.70;;;2.43;;
5042;SDS011;2540;50.928;6.856;2023-03-26T14:54:56;4.40;;;1.93;;
5042;SDS011;2540;50.928;6.856;2023-03-26T15:22:09;4.70;;;1.50;;
5042;SDS011;2540;50.928;6.856;2023-03-26T15:31:06;2.93;;;1.40;;
5042;SDS011;2540;50.928;6.856;2023-03-26T15:52:51;1.37;;;0.70;;
5042;SDS011;2540;50.928;6.856;2023-03-26T15:55:43;1.10;;;0.93;;
5042;SDS011;2540;50.928;6.856;2023-03-26T16:00:51;1.30;;;1.20;;
5042;SDS011;2540;50.928;6.856;2023-03-26T16:03:23;1.20;;;1.10;;
5042;SDS011;2540;50.928;6.856;2023-03-26T16:11:53;1.30;;;1.20;;
5042;SDS011;2540;50.928;6.856;2023-03-26T16:16:58;1.80;;;1.17;;
5042;SDS011;2540;50.928;6.856;2023-03-26T16:19:26;2.07;;;1.30;;
5042;SDS011;2540;50.928;6.856;2023-03-26T16:21:59;2.13;;;1.27;;
5042;SDS011;2540;50.928;6.856;2023-03-26T16:24:27;1.50;;;1.40;;
5042;SDS011;2540;50.928;6.856;2023-03-26T16:32:27;3.07;;;1.83;;
5042;SDS011;2540;50.928;6.856;2023-03-26T16:34:54;1.60;;;1.47;;
5042;SDS011;2540;50.928;6.856;2023-03-26T16:40:33;1.83;;;1.47;;
5042;SDS011;2540;50.928;6.856;2023-03-26T16:42:54;1.30;;;1.20;;
5042;SDS011;2540;50.928;6.856;2023-03-26T16:53:36;3.23;;;1.87;;
5042;SDS011;2540;50.928;6.856;2023-03-26T16:59:00;2.57;;;1.77;;
5042;SDS011;2540;50.928;6.856;2023-03-26T17:01:46;3.20;;;1.90;;
5042;SDS011;2540;50.928;6.856;2023-03-26T17:04:19;2.30;;;1.63;;
5042;SDS011;2540;50.928;6.856;2023-03-26T17:10:08;1.20;;;1.10;;
5042;SDS011;2540;50.928;6.856;2023-03-26T17:12:42;2.60;;;1.53;;
5042;SDS011;2540;50.928;6.856;2023-03-26T17:17:50;1.47;;;1.10;;
5042;SDS011;2540;50.928;6.856;2023-03-26T17:22:51;2.70;;;1.40;;
5042;SDS011;2540;50.928;6.856;2023-03-26T17:25:42;1.60;;;1.50;;
5042;SDS011;2540;50.928;6.856;2023-03-26T17:37:08;1.50;;;1.40;;
5042;SDS011;2540;50.928;6.856;2023-03-26T17:44:50;3.70;;;2.03;;
5042;SDS011;2540;50.928;6.856;2023-03-26T17:47:22;1.30;;;1.10;;
5042;SDS011;2540;50.928;6.856;2023-03-26T17:52:44;2.77;;;1.40;;
5042;SDS011;2540;50.928;6.856;2023-03-26T17:55:20;3.20;;;2.00;;
5042;SDS011;2540;50.928;6.856;2023-03-26T17:57:50;3.20;;;1.80;;
5042;SDS011;2540;50.928;6.856;2023-03-26T18:00:22;4.27;;;2.00;;
5042;SDS011;2540;50.928;6.856;2023-03-26T18:02:53;12.00;;;2.70;;
5042;SDS011;2540;50.928;6.856;2023-03-26T18:05:21;7.50;;;3.23;;
5042;SDS011;2540;50.928;6.856;2023-03-26T18:07:55;9.47;;;4.13;;
5042;SDS011;2540;50.928;6.856;2023-03-26T18:15:45;19.90;;;4.97;;
5042;SDS011;2540;50.928;6.856;2023-03-26T18:18:39;23.23;;;4.93;;
5042;SDS011;2540;50.928;6.856;2023-03-26T18:21:10;9.63;;;4.40;;
5042;SDS011;2540;50.928;6.856;2023-03-26T18:23:38;18.83;;;5.07;;
5042;SDS011;2540;50.928;6.856;2023-03-26T18:26:12;18.10;;;5.10;;
5042;SDS011;2540;50.928;6.856;2023-03-26T18:28:40;15.67;;;4.90;;
5042;SDS011;2540;50.928;6.856;2023-03-26T18:31:17;14.33;;;4.63;;
5042;SDS011;2540;50.928;6.856;2023-03-26T18:33:45;22.07;;;5.23;;
5042;SDS011;2540;50.928;6.856;2023-03-26T18:36:13;22.23;;;5.40;;
5042;SDS011;2540;50.928;6.856;2023-03-26T18:38:40;15.40;;;4.23;;
5042;SDS011;2540;50.928;6.856;2023-03-26T18:41:14;14.03;;;6.17;;
5042;SDS011;2540;50.928;6.856;2023-03-26T18:43:43;21.83;;;7.90;;
5042;SDS011;2540;50.928;6.856;2023-03-26T18:46:10;19.87;;;6.30;;
5042;SDS011;2540;50.928;6.856;2023-03-26T18:48:36;13.70;;;5.77;;
5042;SDS011;2540;50.928;6.856;2023-03-26T18:51:02;17.43;;;6.00;;
5042;SDS011;2540;50.928;6.856;2023-03-26T18:53:30;17.20;;;5.63;;
5042;SDS011;2540;50.928;6.856;2023-03-26T18:56:01;10.37;;;4.40;;
5042;SDS011;2540;50.928;6.856;2023-03-26T18:58:42;22.40;;;6.40;;
5042;SDS011;2540;50.928;6.856;2023-03-26T19:01:14;23.60;;;5.43;;
5042;SDS011;2540;50.928;6.856;2023-03-26T19:03:40;16.00;;;5.90;;
5042;SDS011;2540;50.928;6.856;2023-03-26T19:06:08;21.40;;;5.60;;
5042;SDS011;2540;50.928;6.856;2023-03-26T19:08:35;15.67;;;5.03;;
5042;SDS011;2540;50.928;6.856;2023-03-26T19:11:04;19.97;;;5.00;;
5042;SDS011;2540;50.928;6.856;2023-03-26T19:13:30;15.13;;;3.90;;
5042;SDS011;2540;50.928;6.856;2023-03-26T19:15:56;14.03;;;3.77;;
5042;SDS011;2540;50.928;6.856;2023-03-26T19:18:24;12.37;;;4.67;;
5042;SDS011;2540;50.928;6.856;2023-03-26T19:20:57;11.83;;;4.07;;
5042;SDS011;2540;50.928;6.856;2023-03-26T19:23:29;18.93;;;5.03;;
5042;SDS011;2540;50.928;6.856;2023-03-26T19:26:00;19.40;;;3.50;;
5042;SDS011;2540;50.928;6.856;2023-03-26T19:28:29;11.37;;;2.70;;
5042;SDS011;2540;50.928;6.856;2023-03-26T19:30:58;10.40;;;2.83;;
5042;SDS011;2540;50.928;6.856;2023-03-26T19:33:32;19.47;;;3.47;;
5042;SDS011;2540;50.928;6.856;2023-03-26T19:36:00;10.20;;;3.07;;
5042;SDS011;2540;50.928;6.856;2023-03-26T19:38:35;10.20;;;3.13;;
5042;SDS011;2540;50.928;6.856;2023-03-26T19:41:02;17.80;;;4.00;;
5042;SDS011;2540;50.928;6.856;2023-03-26T19:43:28;10.20;;;3.23;;
5042;SDS011;2540;50.928;6.856;2023-03-26T19:45:53;10.97;;;2.30;;
5042;SDS011;2540;50.928;6.856;2023-03-26T19:48:19;13.50;;;2.80;;
5042;SDS011;2540;50.928;6.856;2023-03-26T19:50:52;7.07;;;2.47;;
5042;SDS011;2540;50.928;6.856;2023-03-26T19:53:32;7.03;;;2.67;;
5042;SDS011;2540;50.928;6.856;2023-03-26T19:58:35;21.33;;;2.60;;
5042;SDS011;2540;50.928;6.856;2023-03-26T20:01:01;11.80;;;2.47;;
5042;SDS011;2540;50.928;6.856;2023-03-26T20:03:28;14.37;;;2.47;;
5042;SDS011;2540;50.928;6.856;2023-03-26T20:06:04;13.57;;;2.63;;
5042;SDS011;2540;50.928;6.856;2023-03-26T20:08:29;15.80;;;3.00;;
5042;SDS011;2540;50.928;6.856;2023-03-26T20:10:55;23.50;;;2.60;;
5042;SDS011;2540;50.928;6.856;2023-03-26T20:13:21;6.93;;;2.10;;
5042;SDS011;2540;50.928;6.856;2023-03-26T20:15:52;15.23;;;2.83;;
5042;SDS011;2540;50.928;6.856;2023-03-26T20:18:21;16.33;;;2.53;;
5042;SDS011;2540;50.928;6.856;2023-03-26T20:20:47;7.93;;;2.33;;
5042;SDS011;2540;50.928;6.856;2023-03-26T20:23:13;16.87;;;2.50;;
5042;SDS011;2540;50.928;6.856;2023-03-26T20:25:43;12.63;;;2.40;;
5042;SDS011;2540;50.928;6.856;2023-03-26T20:28:15;11.73;;;2.50;;
5042;SDS011;2540;50.928;6.856;2023-03-26T20:30:43;9.00;;;2.10;;
5042;SDS011;2540;50.928;6.856;2023-03-26T20:33:19;15.33;;;2.27;;
5042;SDS011;2540;50.928;6.856;2023-03-26T20:35:49;11.80;;;2.43;;
5042;SDS011;2540;50.928;6.856;2023-03-26T20:38:14;11.23;;;2.00;;
5042;SDS011;2540;50.928;6.856;2023-03-26T20:40:40;10.93;;;2.30;;
5042;SDS011;2540;50.928;6.856;2023-03-26T20:43:09;13.13;;;1.57;;
5042;SDS011;2540;50.928;6.856;2023-03-26T20:45:36;8.07;;;1.50;;
5042;SDS011;2540;50.928;6.856;2023-03-26T20:48:01;10.80;;;2.03;;
5042;SDS011;2540;50.928;6.856;2023-03-26T20:50:27;7.97;;;2.17;;
5042;SDS011;2540;50.928;6.856;2023-03-26T20:52:52;10.20;;;1.90;;